Time;durP1;ratioP1;P1;durP2;ratioP2;P2;SDS_P1;SDS_P2;PMS_P1;PMS_P2;Temp;Humidity;BMP_temperature;BMP_pressure;BME280_temperature;BME280_humidity;BME280_pressure;Samples;Min_cycle;Max_cycle;Signal;HPM_P1;HPM_P2
2021/06/13 00:01:27;;;;;;;1.50;1.50;;;25.50;75.20;;;;;;4971961;28;20051;-56
2021/06/13 00:03:53;;;;;;;3.47;1.50;;;25.50;75.20;;;;;;4971983;28;20416;-56
2021/06/13 00:06:19;;;;;;;1.60;1.50;;;25.60;75.30;;;;;;4972015;28;20093;-55
2021/06/13 00:08:45;;;;;;;1.40;1.40;;;25.50;75.10;;;;;;4971513;28;20050;-57
2021/06/13 00:11:12;;;;;;;1.30;1.30;;;25.50;75.10;;;;;;4966711;28;20078;-56
2021/06/13 00:13:39;;;;;;;1.17;1.17;;;25.50;75.10;;;;;;4967718;28;20129;-57
2021/06/13 00:16:07;;;;;;;1.30;1.30;;;25.50;75.10;;;;;;4971791;28;20055;-56
2021/06/13 00:18:33;;;;;;;1.08;1.08;;;25.50;75.10;;;;;;4971558;28;20431;-56
2021/06/13 00:21:00;;;;;;;1.00;1.00;;;25.50;75.10;;;;;;4971693;28;20064;-56
2021/06/13 00:23:26;;;;;;;1.05;1.05;;;25.50;75.00;;;;;;4971606;28;20062;-56
2021/06/13 00:25:52;;;;;;;1.02;1.02;;;25.50;75.00;;;;;;4970186;28;20047;-56
2021/06/13 00:28:18;;;;;;;1.75;0.77;;;25.50;73.40;;;;;;4970732;28;20153;-57
2021/06/13 00:30:46;;;;;;;0.88;0.88;;;25.50;72.40;;;;;;4971237;28;20051;-57
2021/06/13 00:33:12;;;;;;;1.42;1.33;;;25.50;72.00;;;;;;4971357;28;20055;-57
2021/06/13 00:35:39;;;;;;;0.75;0.75;;;25.50;71.00;;;;;;4971240;28;20047;-57
2021/06/13 00:38:06;;;;;;;0.80;0.80;;;25.40;71.10;;;;;;4971352;28;20046;-57
2021/06/13 00:40:34;;;;;;;3.85;1.40;;;25.40;70.60;;;;;;4971098;28;20184;-57
2021/06/13 00:43:02;;;;;;;1.42;1.33;;;25.40;70.50;;;;;;4969983;28;20522;-57
2021/06/13 00:45:30;;;;;;;1.15;1.15;;;25.40;69.60;;;;;;4970758;28;20054;-57
2021/06/13 00:47:56;;;;;;;1.30;0.95;;;25.40;69.80;;;;;;4969670;28;20051;-57
2021/06/13 00:50:38;;;;;;;1.30;1.25;;;25.40;69.90;;;;;;4971185;28;20097;-57
2021/06/13 00:53:07;;;;;;;1.92;1.30;;;25.30;69.00;;;;;;4970552;28;20073;-57
2021/06/13 00:55:37;;;;;;;1.03;1.03;;;25.30;69.60;;;;;;4958747;28;20137;-57
2021/06/13 00:58:06;;;;;;;1.85;1.50;;;25.30;68.60;;;;;;4971198;28;20078;-57
2021/06/13 01:00:34;;;;;;;2.17;1.98;;;25.30;69.10;;;;;;4986266;28;20085;-57
2021/06/13 01:03:00;;;;;;;1.40;1.30;;;25.30;68.50;;;;;;4971076;28;20141;-57
2021/06/13 01:05:27;;;;;;;1.40;1.30;;;25.30;68.70;;;;;;4969903;28;20042;-57
2021/06/13 01:08:07;;;;;;;9.93;1.33;;;25.30;68.50;;;;;;4969803;28;20084;-57
2021/06/13 01:11:02;;;;;;;5.50;1.65;;;25.30;68.00;;;;;;4970580;28;20137;-57
2021/06/13 01:13:52;;;;;;;1.63;1.60;;;25.20;68.40;;;;;;4957549;28;20057;-57
2021/06/13 01:16:31;;;;;;;1.90;1.73;;;25.20;67.90;;;;;;4970604;28;20134;-57
2021/06/13 01:19:07;;;;;;;3.35;2.20;;;25.20;67.70;;;;;;4970692;28;20050;-57
2021/06/13 01:21:45;;;;;;;2.05;1.85;;;25.20;67.40;;;;;;4970973;28;20129;-57
2021/06/13 01:25:05;;;;;;;3.83;1.42;;;25.20;67.70;;;;;;4969580;28;20055;-57
2021/06/13 01:27:49;;;;;;;1.58;1.48;;;25.20;67.00;;;;;;4948588;29;20565;-57
2021/06/13 01:30:17;;;;;;;3.13;1.77;;;25.10;67.00;;;;;;4932694;29;20569;-58
2021/06/13 01:32:44;;;;;;;3.85;1.88;;;25.20;66.80;;;;;;4958341;28;20177;-57
2021/06/13 01:35:15;;;;;;;2.25;2.08;;;25.10;67.20;;;;;;4969210;28;20105;-57
2021/06/13 01:37:47;;;;;;;1.92;1.83;;;25.10;67.00;;;;;;4970106;28;20050;-58
2021/06/13 01:40:15;;;;;;;2.53;2.33;;;25.10;66.70;;;;;;4967645;28;20133;-57
2021/06/13 01:42:51;;;;;;;2.33;2.13;;;25.10;66.60;;;;;;4970429;28;20210;-57
2021/06/13 01:45:22;;;;;;;2.40;2.30;;;25.10;66.60;;;;;;4970261;28;20637;-57
2021/06/13 01:47:51;;;;;;;1.90;1.77;;;25.10;66.40;;;;;;4970215;28;20130;-58
2021/06/13 01:50:20;;;;;;;1.98;1.70;;;25.00;66.90;;;;;;4969890;28;20054;-57
2021/06/13 01:52:50;;;;;;;3.05;2.42;;;25.00;66.40;;;;;;4968598;28;20149;-57
2021/06/13 01:55:18;;;;;;;5.22;2.25;;;25.00;66.40;;;;;;4970077;28;20050;-57
2021/06/13 01:57:47;;;;;;;2.67;2.33;;;25.00;66.00;;;;;;4968496;28;20502;-57
2021/06/13 02:00:27;;;;;;;2.30;2.17;;;25.00;66.40;;;;;;4968621;28;20382;-57
2021/06/13 02:03:01;;;;;;;2.35;2.00;;;25.00;66.00;;;;;;4968416;28;20130;-57
2021/06/13 02:05:49;;;;;;;3.47;3.17;;;25.00;65.90;;;;;;4969459;28;20154;-57
2021/06/13 02:08:19;;;;;;;2.13;1.92;;;24.90;65.90;;;;;;4968713;28;20050;-57
2021/06/13 02:10:53;;;;;;;2.63;2.38;;;25.00;66.20;;;;;;4972600;28;20137;-57
2021/06/13 02:13:20;;;;;;;2.60;2.40;;;24.90;65.90;;;;;;4969498;28;20047;-57
2021/06/13 02:15:55;;;;;;;5.03;2.42;;;24.90;66.00;;;;;;4968401;28;20145;-57
2021/06/13 02:18:24;;;;;;;2.40;2.13;;;24.90;65.80;;;;;;4968215;28;20446;-56
2021/06/13 02:20:52;;;;;;;3.92;2.35;;;24.90;65.90;;;;;;4968244;28;20078;-57
2021/06/13 02:23:18;;;;;;;2.78;2.53;;;24.90;66.20;;;;;;4968298;28;20061;-57
2021/06/13 02:25:46;;;;;;;2.70;2.50;;;24.90;66.00;;;;;;4967462;28;20050;-57
2021/06/13 02:28:14;;;;;;;2.80;2.60;;;24.90;66.00;;;;;;4963800;28;20054;-57
2021/06/13 02:30:45;;;;;;;3.97;2.70;;;24.90;65.90;;;;;;4984209;28;20137;-57
2021/06/13 02:33:15;;;;;;;2.75;2.50;;;24.90;65.50;;;;;;4968046;28;20051;-58
2021/06/13 02:35:46;;;;;;;4.70;2.67;;;24.90;65.70;;;;;;4984278;28;20540;-57
2021/06/13 02:38:16;;;;;;;2.78;2.58;;;24.90;65.70;;;;;;4983883;28;20197;-57
2021/06/13 02:40:43;;;;;;;3.38;3.08;;;24.80;65.70;;;;;;4968004;28;20051;-57
2021/06/13 02:43:10;;;;;;;3.08;2.67;;;24.90;65.70;;;;;;4968066;28;20053;-57
2021/06/13 02:45:41;;;;;;;3.00;2.67;;;24.80;65.80;;;;;;4967755;28;20641;-58
2021/06/13 02:48:08;;;;;;;4.50;2.80;;;24.80;65.40;;;;;;4969341;28;20526;-57
2021/06/13 02:50:34;;;;;;;2.92;2.72;;;24.80;65.30;;;;;;4968879;28;20065;-57
2021/06/13 02:53:25;;;;;;;2.97;2.70;;;24.80;65.50;;;;;;4967208;28;20855;-57
2021/06/13 02:55:57;;;;;;;3.38;3.08;;;24.80;65.20;;;;;;4968773;28;20046;-57
2021/06/13 02:58:37;;;;;;;5.20;3.08;;;24.80;65.60;;;;;;4967566;28;20158;-57
2021/06/13 03:01:06;;;;;;;5.68;3.15;;;24.80;65.40;;;;;;4967895;28;20144;-57
2021/06/13 03:03:34;;;;;;;3.25;2.90;;;24.80;65.40;;;;;;4967699;28;20142;-58
2021/06/13 03:06:12;;;;;;;8.25;3.47;;;24.80;64.50;;;;;;4967807;28;20108;-57
2021/06/13 03:08:39;;;;;;;4.10;3.70;;;24.80;65.10;;;;;;4968917;28;20116;-57
2021/06/13 03:11:07;;;;;;;4.40;3.30;;;24.80;65.20;;;;;;4972034;28;20356;-57
2021/06/13 03:13:34;;;;;;;3.78;3.22;;;24.80;65.10;;;;;;4968937;28;20050;-57
2021/06/13 03:16:03;;;;;;;4.10;3.42;;;24.80;65.30;;;;;;4967621;28;20459;-57
2021/06/13 03:18:30;;;;;;;3.75;3.08;;;24.80;64.70;;;;;;4968529;28;20503;-57
2021/06/13 03:20:58;;;;;;;4.05;3.15;;;24.80;64.80;;;;;;4967526;28;20046;-57
2021/06/13 03:23:27;;;;;;;3.20;3.00;;;24.70;64.20;;;;;;4968682;28;20134;-58
2021/06/13 03:25:55;;;;;;;7.30;3.53;;;24.80;64.90;;;;;;4968470;28;20113;-57
2021/06/13 03:28:24;;;;;;;5.68;3.35;;;24.80;64.80;;;;;;4968390;28;20058;-57
2021/06/13 03:30:52;;;;;;;7.60;3.58;;;24.70;64.90;;;;;;4967093;28;20062;-58
2021/06/13 03:33:20;;;;;;;6.57;4.20;;;24.70;64.30;;;;;;4968736;28;20081;-57
2021/06/13 03:35:49;;;;;;;3.67;3.38;;;24.70;64.50;;;;;;4967350;28;20046;-57
2021/06/13 03:38:17;;;;;;;4.90;4.07;;;24.70;64.70;;;;;;4968379;28;20563;-57
2021/06/13 03:40:44;;;;;;;5.50;3.83;;;24.70;64.70;;;;;;4967073;28;20043;-57
2021/06/13 03:43:13;;;;;;;4.22;3.70;;;24.70;64.60;;;;;;4966980;28;20523;-56
2021/06/13 03:45:41;;;;;;;5.50;4.60;;;24.70;64.50;;;;;;4968181;28;20137;-57
2021/06/13 03:48:11;;;;;;;6.35;3.95;;;24.70;64.70;;;;;;4968335;28;20054;-57
2021/06/13 03:50:37;;;;;;;4.85;4.43;;;24.70;64.80;;;;;;4968167;28;20082;-58
2021/06/13 03:53:04;;;;;;;6.97;4.45;;;24.70;64.90;;;;;;4968252;28;20118;-57
2021/06/13 03:55:30;;;;;;;5.60;5.05;;;24.70;64.90;;;;;;4968293;28;20050;-57
2021/06/13 03:57:57;;;;;;;4.28;3.97;;;24.70;64.90;;;;;;4983159;28;20133;-57
2021/06/13 04:00:25;;;;;;;6.68;4.80;;;24.70;64.70;;;;;;4968034;28;20137;-57
2021/06/13 04:02:51;;;;;;;6.63;5.13;;;24.70;64.90;;;;;;4969704;28;20531;-57
2021/06/13 04:05:28;;;;;;;7.72;4.40;;;24.70;64.60;;;;;;4970654;28;20093;-57
2021/06/13 04:07:54;;;;;;;5.75;4.93;;;24.70;64.70;;;;;;4971809;28;20071;-57
2021/06/13 04:10:22;;;;;;;8.50;4.65;;;24.70;64.50;;;;;;4966920;28;20055;-56
2021/06/13 04:12:49;;;;;;;4.72;4.32;;;24.70;64.50;;;;;;4958912;28;20129;-57
2021/06/13 04:15:17;;;;;;;6.18;4.68;;;24.70;64.60;;;;;;4971533;28;20062;-57
2021/06/13 04:17:44;;;;;;;5.88;4.75;;;24.70;64.60;;;;;;4971579;28;20051;-57
2021/06/13 04:20:11;;;;;;;5.75;4.32;;;24.70;64.90;;;;;;4971376;28;20470;-56
2021/06/13 04:22:38;;;;;;;10.63;4.60;;;24.70;64.60;;;;;;4986402;28;20047;-57
2021/06/13 04:25:08;;;;;;;8.05;4.47;;;24.70;64.10;;;;;;4971529;28;20047;-57
2021/06/13 04:27:36;;;;;;;4.50;4.15;;;24.70;64.20;;;;;;4963891;28;20173;-57
2021/06/13 04:30:07;;;;;;;6.18;4.57;;;24.70;64.20;;;;;;4986343;28;20089;-57
2021/06/13 04:32:33;;;;;;;8.20;5.00;;;24.70;64.00;;;;;;4971632;28;20136;-58
2021/06/13 04:34:59;;;;;;;5.72;4.20;;;24.70;64.50;;;;;;4971165;28;20185;-56
2021/06/13 04:37:26;;;;;;;11.30;4.30;;;24.70;65.30;;;;;;4971092;28;20503;-57
2021/06/13 04:39:52;;;;;;;6.30;3.88;;;24.70;65.60;;;;;;4971081;28;20519;-57
2021/06/13 04:42:18;;;;;;;7.18;3.70;;;24.70;66.30;;;;;;4971353;28;20069;-57
2021/06/13 04:44:44;;;;;;;5.32;3.78;;;24.70;66.60;;;;;;4971188;28;20046;-57
2021/06/13 04:47:13;;;;;;;9.38;4.10;;;24.70;66.30;;;;;;4970850;28;20625;-57
2021/06/13 04:49:41;;;;;;;6.40;3.88;;;24.70;66.40;;;;;;4971053;28;20125;-57
2021/06/13 04:52:11;;;;;;;4.88;4.15;;;24.70;66.30;;;;;;4969768;28;20074;-57
2021/06/13 04:54:53;;;;;;;6.68;4.63;;;24.70;65.60;;;;;;4970801;28;20511;-57
2021/06/13 04:57:34;;;;;;;5.57;4.30;;;24.70;65.60;;;;;;4970896;28;20089;-57
2021/06/13 05:00:00;;;;;;;12.25;4.22;;;24.70;65.80;;;;;;4970878;28;20063;-57
2021/06/13 05:02:26;;;;;;;7.63;3.67;;;24.70;66.00;;;;;;4970667;28;20527;-57
2021/06/13 05:04:54;;;;;;;3.90;3.60;;;24.70;65.90;;;;;;4985747;28;20051;-57
2021/06/13 05:07:21;;;;;;;6.30;3.75;;;24.70;65.90;;;;;;4970628;28;20066;-57
2021/06/13 05:09:48;;;;;;;7.18;4.00;;;24.70;66.00;;;;;;4970477;28;20205;-57
2021/06/13 05:12:13;;;;;;;8.52;4.18;;;24.70;65.60;;;;;;4966422;28;20529;-57
2021/06/13 05:14:39;;;;;;;5.57;3.85;;;24.70;65.40;;;;;;4970131;28;20077;-57
2021/06/13 05:17:06;;;;;;;5.18;3.90;;;24.70;65.10;;;;;;4970484;28;20145;-57
2021/06/13 05:19:32;;;;;;;8.27;4.38;;;24.70;65.30;;;;;;4970675;28;20503;-57
2021/06/13 05:21:59;;;;;;;4.05;3.65;;;24.70;65.00;;;;;;4970779;28;20043;-57
2021/06/13 05:24:25;;;;;;;4.13;3.60;;;24.70;65.50;;;;;;4970738;28;20161;-57
2021/06/13 05:26:51;;;;;;;8.63;3.55;;;24.70;65.20;;;;;;4970496;28;20051;-57
2021/06/13 05:29:17;;;;;;;6.30;4.00;;;24.60;65.30;;;;;;4970343;28;20050;-56
2021/06/13 05:31:43;;;;;;;4.10;3.65;;;24.70;65.40;;;;;;4970438;28;20142;-57
2021/06/13 05:34:09;;;;;;;6.32;4.70;;;24.70;65.30;;;;;;4970117;28;20497;-57
2021/06/13 05:36:35;;;;;;;5.38;4.00;;;24.70;65.00;;;;;;4970243;28;20047;-56
2021/06/13 05:39:01;;;;;;;4.07;3.78;;;24.70;64.50;;;;;;4985083;28;20673;-57
2021/06/13 05:41:27;;;;;;;4.13;3.80;;;24.70;64.70;;;;;;4970443;28;20062;-57
2021/06/13 05:43:53;;;;;;;8.90;3.53;;;24.60;64.70;;;;;;4970185;28;20496;-57
2021/06/13 05:46:19;;;;;;;11.23;4.50;;;24.60;64.80;;;;;;4970480;28;20129;-57
2021/06/13 05:48:46;;;;;;;6.38;4.50;;;24.60;64.50;;;;;;4970135;28;20051;-57
2021/06/13 05:51:13;;;;;;;8.18;4.05;;;24.60;65.00;;;;;;4969804;28;20653;-57
2021/06/13 05:53:40;;;;;;;5.93;3.63;;;24.60;65.70;;;;;;4969296;28;20229;-57
2021/06/13 05:56:06;;;;;;;6.18;4.40;;;24.60;64.80;;;;;;4970001;28;20572;-57
2021/06/13 05:58:32;;;;;;;5.32;3.72;;;24.60;65.40;;;;;;4969898;28;20050;-57
2021/06/13 06:00:58;;;;;;;5.18;3.50;;;24.60;64.30;;;;;;4969959;28;20138;-57
2021/06/13 06:03:24;;;;;;;5.80;3.75;;;24.60;64.80;;;;;;4970011;28;20149;-56
2021/06/13 06:05:51;;;;;;;7.97;4.47;;;24.60;64.20;;;;;;4969898;28;20502;-56
2021/06/13 06:08:18;;;;;;;7.65;4.18;;;24.60;64.60;;;;;;4969750;28;20082;-57
2021/06/13 06:10:44;;;;;;;6.82;4.20;;;24.60;64.40;;;;;;4969872;28;20464;-57
2021/06/13 06:13:11;;;;;;;5.90;3.75;;;24.60;64.40;;;;;;4969662;28;20138;-58
2021/06/13 06:15:38;;;;;;;8.13;3.95;;;24.60;64.60;;;;;;4969660;28;20054;-56
2021/06/13 06:18:05;;;;;;;4.40;3.92;;;24.60;64.80;;;;;;4969487;28;20082;-57
2021/06/13 06:20:32;;;;;;;7.10;5.20;;;24.60;64.40;;;;;;4969865;28;20404;-57
2021/06/13 06:22:59;;;;;;;4.82;3.95;;;24.60;64.60;;;;;;4969659;28;20149;-57
2021/06/13 06:25:25;;;;;;;7.82;3.60;;;24.50;64.80;;;;;;4968880;28;20050;-57
2021/06/13 06:27:52;;;;;;;7.53;3.75;;;24.60;65.40;;;;;;4961520;28;20061;-58
2021/06/13 06:30:20;;;;;;;5.00;3.80;;;24.60;65.10;;;;;;4969300;28;20603;-57
2021/06/13 06:32:46;;;;;;;5.13;3.75;;;24.60;64.60;;;;;;4969399;28;20054;-57
2021/06/13 06:35:13;;;;;;;5.75;3.53;;;24.60;64.80;;;;;;4969061;28;20062;-57
2021/06/13 06:37:41;;;;;;;8.80;4.28;;;24.60;65.00;;;;;;4969480;28;20423;-57
2021/06/13 06:40:09;;;;;;;7.05;3.92;;;24.60;64.80;;;;;;4969380;28;20055;-57
2021/06/13 06:42:37;;;;;;;3.70;3.45;;;24.60;64.90;;;;;;4969473;28;20047;-57
2021/06/13 06:45:05;;;;;;;8.63;3.92;;;24.60;64.50;;;;;;4969541;28;20081;-57
2021/06/13 06:47:31;;;;;;;6.10;3.55;;;24.60;64.90;;;;;;4969326;28;20051;-57
2021/06/13 06:49:57;;;;;;;6.45;4.13;;;24.50;64.60;;;;;;4968907;28;20069;-57
2021/06/13 06:52:23;;;;;;;6.90;4.38;;;24.60;64.80;;;;;;4969092;28;20062;-57
2021/06/13 06:54:50;;;;;;;7.93;3.88;;;24.60;64.50;;;;;;4968460;28;20136;-57
2021/06/13 06:57:17;;;;;;;6.00;4.15;;;24.50;64.90;;;;;;4968991;28;20105;-56
2021/06/13 06:59:43;;;;;;;10.18;4.38;;;24.50;65.20;;;;;;4968929;28;20122;-56
2021/06/13 07:02:10;;;;;;;6.40;3.17;;;24.60;65.30;;;;;;4968976;28;20408;-58
2021/06/13 07:04:35;;;;;;;4.68;2.67;;;24.60;62.10;;;;;;4968713;28;20046;-57
2021/06/13 07:07:02;;;;;;;5.70;3.08;;;24.50;62.60;;;;;;4968978;28;20523;-57
2021/06/13 07:09:28;;;;;;;9.43;2.83;;;24.50;63.40;;;;;;4968271;28;20081;-56
2021/06/13 07:11:54;;;;;;;9.95;2.90;;;24.50;63.10;;;;;;4968429;28;20061;-58
2021/06/13 07:14:20;;;;;;;7.25;3.15;;;24.60;62.00;;;;;;4968764;28;20408;-58
2021/06/13 07:16:46;;;;;;;4.43;2.55;;;24.60;61.60;;;;;;4968822;28;20078;-58
2021/06/13 07:19:12;;;;;;;6.85;2.30;;;24.50;60.80;;;;;;4968318;28;20055;-59
2021/06/13 07:21:38;;;;;;;3.85;2.67;;;24.50;60.20;;;;;;4968945;28;20109;-57
2021/06/13 07:24:06;;;;;;;9.55;3.00;;;24.50;60.20;;;;;;4968804;28;20054;-57
2021/06/13 07:26:35;;;;;;;4.22;2.17;;;24.50;60.40;;;;;;4961077;28;20051;-58
2021/06/13 07:29:01;;;;;;;8.35;2.67;;;24.50;60.30;;;;;;4983681;28;20550;-57
2021/06/13 07:31:27;;;;;;;4.95;1.98;;;24.50;60.00;;;;;;4968809;28;20055;-58
2021/06/13 07:33:53;;;;;;;2.63;2.25;;;24.50;59.90;;;;;;4968641;28;20404;-57
2021/06/13 07:36:19;;;;;;;7.35;3.28;;;24.50;59.80;;;;;;4969503;28;20515;-58
2021/06/13 07:38:45;;;;;;;4.18;2.05;;;24.50;59.40;;;;;;4987764;28;20148;-57
2021/06/13 07:41:11;;;;;;;7.07;2.92;;;24.40;59.50;;;;;;4972126;28;20546;-58
2021/06/13 07:43:37;;;;;;;5.43;2.40;;;24.40;59.10;;;;;;4972803;28;20093;-58
2021/06/13 07:46:03;;;;;;;10.43;2.88;;;24.40;60.10;;;;;;4972515;28;20099;-57
2021/06/13 07:48:29;;;;;;;4.75;2.33;;;24.40;59.60;;;;;;4972114;28;20058;-58
2021/06/13 07:50:55;;;;;;;7.30;2.55;;;24.30;59.40;;;;;;4972216;28;20141;-58
2021/06/13 07:53:21;;;;;;;5.72;3.30;;;24.40;58.80;;;;;;4986832;28;20521;-55
2021/06/13 07:55:47;;;;;;;5.15;2.20;;;24.30;58.90;;;;;;4972084;28;20050;-56
2021/06/13 07:58:13;;;;;;;5.10;2.25;;;24.30;59.90;;;;;;4971040;28;20515;-55
2021/06/13 08:00:39;;;;;;;5.38;2.70;;;24.30;60.30;;;;;;4972069;28;20120;-57
2021/06/13 08:03:06;;;;;;;5.78;2.80;;;24.30;59.60;;;;;;4971206;28;20063;-59
2021/06/13 08:05:34;;;;;;;6.05;2.30;;;24.30;59.90;;;;;;4986767;28;20137;-57
2021/06/13 08:08:09;;;;;;;5.78;2.33;;;24.40;60.20;;;;;;4972103;28;20150;-57
2021/06/13 08:10:36;;;;;;;8.93;2.58;;;24.40;59.90;;;;;;4971447;28;20058;-59
2021/06/13 08:13:04;;;;;;;5.55;2.35;;;24.40;59.90;;;;;;4972257;28;20061;-55
2021/06/13 08:15:30;;;;;;;7.10;2.10;;;24.40;59.50;;;;;;4971946;28;20055;-57
2021/06/13 08:17:57;;;;;;;6.07;2.55;;;24.40;59.70;;;;;;4971880;28;20108;-56
2021/06/13 08:20:24;;;;;;;7.55;2.33;;;24.40;60.00;;;;;;4970472;28;20051;-56
2021/06/13 08:22:50;;;;;;;11.93;2.83;;;24.40;58.90;;;;;;4972254;28;20046;-56
2021/06/13 08:25:17;;;;;;;10.60;2.33;;;24.40;58.50;;;;;;4971314;28;20121;-56
2021/06/13 08:27:44;;;;;;;7.95;2.33;;;24.30;58.50;;;;;;4963964;28;20053;-57
2021/06/13 08:30:12;;;;;;;2.83;1.45;;;24.30;58.50;;;;;;4971480;28;20047;-59
2021/06/13 08:32:39;;;;;;;2.90;1.88;;;24.30;58.50;;;;;;4971533;28;20415;-57
2021/06/13 08:35:06;;;;;;;4.03;2.00;;;24.30;58.40;;;;;;4971607;28;20051;-58
2021/06/13 08:37:33;;;;;;;10.05;2.97;;;24.30;58.60;;;;;;4971823;28;20062;-59
2021/06/13 08:39:59;;;;;;;3.75;2.22;;;24.30;58.60;;;;;;4967266;28;20185;-68
2021/06/13 08:42:25;;;;;;;3.15;1.65;;;24.20;59.30;;;;;;4966596;28;20295;-63
2021/06/13 08:44:52;;;;;;;11.95;2.13;;;24.30;60.00;;;;;;4981225;28;20061;-63
2021/06/13 08:47:22;;;;;;;5.30;1.67;;;24.30;60.10;;;;;;4982687;28;20687;-63
2021/06/13 08:49:50;;;;;;;6.28;1.95;;;24.30;60.50;;;;;;4967477;28;20046;-61
2021/06/13 08:52:16;;;;;;;3.53;2.38;;;24.30;60.60;;;;;;4967414;28;20093;-60
2021/06/13 08:54:43;;;;;;;3.67;2.17;;;24.30;60.80;;;;;;4968449;28;20082;-61
2021/06/13 08:57:09;;;;;;;8.80;2.10;;;24.30;60.90;;;;;;4968333;28;20137;-60
2021/06/13 08:59:37;;;;;;;4.68;2.45;;;24.30;61.20;;;;;;4968656;28;20055;-58
2021/06/13 09:02:04;;;;;;;2.92;1.90;;;24.30;61.70;;;;;;4968863;28;20058;-62
2021/06/13 09:04:29;;;;;;;4.93;1.85;;;24.30;61.80;;;;;;4966700;28;20055;-63
2021/06/13 09:06:56;;;;;;;6.03;2.10;;;24.30;61.90;;;;;;4968233;28;20077;-62
2021/06/13 09:09:26;;;;;;;3.28;2.10;;;24.30;61.90;;;;;;4968586;28;20138;-63
2021/06/13 09:12:06;;;;;;;6.75;3.40;;;24.30;61.90;;;;;;4965200;28;20050;-63
2021/06/13 09:14:44;;;;;;;7.25;2.90;;;24.30;61.90;;;;;;4968253;28;20638;-62
2021/06/13 09:17:26;;;;;;;3.30;2.17;;;24.40;61.80;;;;;;4982673;28;20059;-61
2021/06/13 09:20:23;;;;;;;3.65;2.30;;;24.40;62.10;;;;;;4968029;28;20597;-63
2021/06/13 09:23:08;;;;;;;11.57;2.60;;;24.40;62.00;;;;;;4959645;28;20073;-62
2021/06/13 09:25:37;;;;;;;5.13;2.85;;;24.40;62.10;;;;;;4973670;28;20166;-63
2021/06/13 09:28:10;;;;;;;3.33;1.90;;;24.40;62.40;;;;;;4967417;28;20061;-59
2021/06/13 09:30:39;;;;;;;6.72;2.60;;;24.40;62.70;;;;;;4958194;28;20140;-62
2021/06/13 09:33:12;;;;;;;6.18;2.83;;;24.40;62.30;;;;;;4966765;28;20085;-62
2021/06/13 09:35:41;;;;;;;5.68;3.83;;;24.40;62.50;;;;;;4967993;28;20065;-62
2021/06/13 09:38:17;;;;;;;8.25;3.08;;;24.40;62.50;;;;;;4968360;28;20506;-62
2021/06/13 09:40:57;;;;;;;5.32;3.45;;;24.40;62.70;;;;;;4967515;28;20138;-61
2021/06/13 09:43:33;;;;;;;5.25;2.85;;;24.50;63.00;;;;;;4967672;28;20134;-62
2021/06/13 09:46:14;;;;;;;4.63;2.28;;;24.50;63.10;;;;;;4967486;28;20371;-62
2021/06/13 09:48:45;;;;;;;6.85;2.60;;;24.50;63.80;;;;;;4961777;28;20047;-62
2021/06/13 09:51:25;;;;;;;4.97;2.65;;;24.50;63.40;;;;;;4967103;28;20502;-62
2021/06/13 09:53:55;;;;;;;6.22;2.70;;;24.50;62.90;;;;;;4967791;28;20518;-64
2021/06/13 09:56:26;;;;;;;5.07;2.67;;;24.50;62.90;;;;;;4966018;28;20058;-62
2021/06/13 09:59:16;;;;;;;10.82;2.97;;;24.50;62.90;;;;;;4967469;28;20081;-63
2021/06/13 10:01:43;;;;;;;3.38;2.78;;;24.50;63.20;;;;;;4957573;28;20066;-65
2021/06/13 10:04:18;;;;;;;4.72;2.92;;;24.50;62.90;;;;;;4966790;28;20101;-60
2021/06/13 10:06:52;;;;;;;7.95;3.10;;;24.50;63.10;;;;;;4965774;28;20061;-62
2021/06/13 10:09:21;;;;;;;6.32;3.03;;;24.50;63.00;;;;;;4967326;28;20078;-69
2021/06/13 10:12:03;;;;;;;10.63;3.00;;;24.50;63.10;;;;;;4967558;28;20138;-63
2021/06/13 10:14:29;;;;;;;3.05;2.70;;;24.40;62.90;;;;;;4968102;28;20056;-61
2021/06/13 10:16:55;;;;;;;3.22;2.42;;;24.50;63.50;;;;;;4967270;28;20059;-64
2021/06/13 10:19:22;;;;;;;7.95;2.85;;;24.50;64.40;;;;;;4967567;28;20060;-63
2021/06/13 10:22:03;;;;;;;4.30;3.03;;;24.50;64.40;;;;;;4967346;28;20049;-62
2021/06/13 10:24:34;;;;;;;4.55;3.00;;;24.50;63.90;;;;;;4964644;28;20574;-63
2021/06/13 10:27:04;;;;;;;7.55;2.75;;;24.50;63.90;;;;;;4967049;28;20081;-64
2021/06/13 10:29:32;;;;;;;5.43;2.53;;;24.60;63.50;;;;;;4966997;28;20059;-64
2021/06/13 10:32:01;;;;;;;4.47;2.38;;;24.50;63.70;;;;;;4966808;28;20062;-65
2021/06/13 10:34:28;;;;;;;2.60;2.40;;;24.50;64.40;;;;;;4967150;28;20046;-62
2021/06/13 10:36:56;;;;;;;5.45;2.28;;;24.50;64.60;;;;;;4962501;28;20052;-62
2021/06/13 10:39:31;;;;;;;4.57;2.22;;;24.50;64.10;;;;;;4959370;28;20055;-65
2021/06/13 10:41:58;;;;;;;3.75;2.50;;;24.50;64.80;;;;;;4965688;28;20178;-64
2021/06/13 10:44:29;;;;;;;5.70;2.42;;;24.50;64.80;;;;;;4981507;28;20046;-63
2021/06/13 10:47:11;;;;;;;5.13;2.43;;;24.50;65.30;;;;;;4966806;28;20043;-65
2021/06/13 10:49:39;;;;;;;5.65;2.17;;;24.60;64.40;;;;;;4981345;28;20137;-62
2021/06/13 10:52:14;;;;;;;3.25;2.88;;;24.60;64.20;;;;;;4966437;28;20058;-62
2021/06/13 10:54:55;;;;;;;6.75;2.78;;;24.60;65.10;;;;;;4966533;28;20187;-59
2021/06/13 10:57:25;;;;;;;6.20;2.17;;;24.60;65.10;;;;;;4966781;28;20062;-61
2021/06/13 10:59:56;;;;;;;4.63;3.50;;;24.60;64.90;;;;;;4966650;28;20094;-60
2021/06/13 11:02:24;;;;;;;9.68;2.72;;;24.60;65.10;;;;;;4966386;28;20426;-59
2021/06/13 11:04:53;;;;;;;5.75;3.00;;;24.60;65.90;;;;;;4966272;28;20054;-61
2021/06/13 11:07:35;;;;;;;5.78;3.25;;;24.60;66.30;;;;;;4966503;28;20133;-62
2021/06/13 11:10:05;;;;;;;5.30;2.90;;;24.60;65.80;;;;;;4964417;28;20146;-62
2021/06/13 11:13:00;;;;;;;7.88;2.60;;;24.60;65.90;;;;;;4969195;28;20754;-59
2021/06/13 11:15:27;;;;;;;2.95;2.42;;;24.50;65.90;;;;;;4987473;28;20108;-63
2021/06/13 11:18:04;;;;;;;2.10;1.90;;;24.50;66.30;;;;;;4972634;28;20559;-61
2021/06/13 11:23:16;;;;;;;26.30;3.83;;;24.50;66.60;;;;;;4972790;28;20194;-67
2021/06/13 11:25:43;;;;;;;11.75;3.70;;;24.40;68.10;;;;;;4970981;28;20546;-64
2021/06/13 11:28:24;;;;;;;36.78;11.30;;;24.50;67.60;;;;;;4984321;28;20106;-66
2021/06/13 11:30:53;;;;;;;11.57;4.90;;;24.40;69.70;;;;;;4971949;28;20138;-64
2021/06/13 11:33:33;;;;;;;14.73;5.97;;;24.40;68.70;;;;;;4973094;28;20108;-63
2021/06/13 11:36:04;;;;;;;10.32;4.32;;;24.40;68.60;;;;;;5004179;28;20051;-70
2021/06/13 11:38:32;;;;;;;7.43;3.50;;;24.40;68.70;;;;;;4972725;28;20055;-60
2021/06/13 11:41:00;;;;;;;10.07;4.43;;;24.40;69.00;;;;;;4972380;28;20114;-59
2021/06/13 11:43:30;;;;;;;11.25;5.05;;;24.40;68.60;;;;;;4972649;28;20143;-60
2021/06/13 11:45:58;;;;;;;13.85;4.00;;;24.40;68.60;;;;;;4972594;28;20059;-62
2021/06/13 11:48:26;;;;;;;8.63;4.43;;;24.40;68.70;;;;;;4994731;28;20138;-60
2021/06/13 11:51:19;;;;;;;4.50;3.55;;;24.40;68.60;;;;;;4972517;28;20042;-61
2021/06/13 11:53:54;;;;;;;9.75;3.17;;;24.40;68.80;;;;;;4971625;28;20197;-60
2021/06/13 11:56:42;;;;;;;18.05;3.83;;;24.40;69.00;;;;;;4971352;28;20058;-58
2021/06/13 11:59:18;;;;;;;4.20;3.10;;;24.40;68.80;;;;;;4972361;28;20157;-62
2021/06/13 12:01:52;;;;;;;7.25;3.03;;;24.40;68.90;;;;;;4972383;28;20061;-57
2021/06/13 12:04:19;;;;;;;8.65;2.67;;;24.40;67.70;;;;;;4971942;28;20147;-57
2021/06/13 12:06:45;;;;;;;6.57;2.65;;;24.20;66.30;;;;;;4972490;28;20082;-58
2021/06/13 12:09:15;;;;;;;7.60;3.65;;;24.10;66.60;;;;;;4972019;28;20105;-60
2021/06/13 12:11:50;;;;;;;8.50;2.85;;;23.80;66.80;;;;;;4982549;28;20072;-60
2021/06/13 12:14:37;;;;;;;7.55;2.83;;;23.70;67.10;;;;;;4987146;28;20054;-59
2021/06/13 12:17:19;;;;;;;5.80;1.92;;;23.60;67.60;;;;;;4971911;28;20138;-60
2021/06/13 12:19:49;;;;;;;2.33;1.90;;;23.50;68.00;;;;;;4970997;28;20109;-59
2021/06/13 12:22:33;;;;;;;3.65;2.13;;;23.40;68.40;;;;;;4972871;28;20096;-62
2021/06/13 12:27:29;;;;;;;5.70;2.38;;;23.30;68.20;;;;;;4969535;28;20176;-61
2021/06/13 12:30:20;;;;;;;5.03;2.50;;;23.20;68.40;;;;;;4969334;28;20058;-62
2021/06/13 12:32:55;;;;;;;3.15;2.13;;;23.20;68.80;;;;;;4984139;28;20146;-64
2021/06/13 12:35:25;;;;;;;4.25;1.90;;;23.10;68.70;;;;;;4968956;28;20095;-59
2021/06/13 12:38:10;;;;;;;7.90;2.42;;;23.10;69.60;;;;;;4969006;28;20142;-58
2021/06/13 12:40:37;;;;;;;9.30;2.25;;;23.10;69.50;;;;;;4968160;28;20054;-59
2021/06/13 12:43:05;;;;;;;9.13;3.17;;;23.10;69.20;;;;;;4968850;28;20725;-66
2021/06/13 12:45:31;;;;;;;7.05;2.50;;;23.10;69.40;;;;;;4984215;28;20124;-62
2021/06/13 12:48:00;;;;;;;9.68;2.38;;;23.10;69.50;;;;;;4968697;28;20137;-61
2021/06/13 12:50:33;;;;;;;5.07;2.13;;;23.00;69.60;;;;;;4968981;28;20061;-63
2021/06/13 12:53:01;;;;;;;7.72;2.33;;;23.00;69.00;;;;;;4968224;28;20129;-59
2021/06/13 12:55:41;;;;;;;4.78;2.90;;;23.00;68.80;;;;;;4968963;28;20137;-60
2021/06/13 12:58:09;;;;;;;3.95;1.95;;;23.10;69.20;;;;;;4956019;28;20050;-58
2021/06/13 13:00:35;;;;;;;5.22;2.40;;;23.20;69.30;;;;;;4968634;28;20050;-60
2021/06/13 13:03:16;;;;;;;5.38;2.20;;;23.30;69.20;;;;;;4983544;28;20558;-58
2021/06/13 13:05:44;;;;;;;4.63;2.35;;;23.40;70.00;;;;;;4968560;28;20058;-58